createdAt,value
2022-12-18T00:01:50.780Z,15.40
2022-12-18T00:04:24.410Z,15.07
2022-12-18T00:06:51.793Z,15.40
2022-12-18T00:09:21.411Z,16.08
2022-12-18T00:11:56.071Z,16.38
2022-12-18T00:14:23.376Z,15.70
2022-12-18T00:16:52.781Z,15.85
2022-12-18T00:19:20.008Z,15.50
2022-12-18T00:21:49.308Z,14.63
2022-12-18T00:24:16.498Z,16.25
2022-12-18T00:26:46.372Z,15.55
2022-12-18T00:29:15.262Z,16.75
2022-12-18T00:31:43.467Z,15.65
2022-12-18T00:34:14.155Z,16.15
2022-12-18T00:36:42.247Z,16.50
2022-12-18T00:39:11.044Z,16.13
2022-12-18T00:41:56.246Z,15.73
2022-12-18T00:44:24.932Z,14.32
2022-12-18T00:46:51.876Z,16.20
2022-12-18T00:49:20.561Z,15.60
2022-12-18T00:51:48.198Z,15.30
2022-12-18T00:54:18.514Z,14.93
2022-12-18T00:56:51.237Z,15.77
2022-12-18T00:59:20.883Z,15.70
2022-12-18T01:01:49.354Z,15.65
2022-12-18T01:04:16.730Z,15.20
2022-12-18T01:06:43.777Z,14.88
2022-12-18T01:09:11.939Z,14.57
2022-12-18T01:11:40.826Z,14.45
2022-12-18T01:16:35.211Z,13.57
2022-12-18T01:19:03.796Z,13.93
2022-12-18T01:21:32.382Z,14.75
2022-12-18T01:24:05.849Z,14.85
2022-12-18T01:26:35.066Z,14.40
2022-12-18T01:29:04.748Z,15.02
2022-12-18T01:31:33.349Z,15.88
2022-12-18T01:34:03.406Z,15.05
2022-12-18T01:36:32.815Z,14.73
2022-12-18T01:39:09.485Z,14.50
2022-12-18T01:41:57.606Z,14.50
2022-12-18T01:44:54.266Z,13.65
2022-12-18T01:47:26.958Z,16.02
2022-12-18T01:49:59.722Z,14.68
2022-12-18T01:52:29.238Z,14.63
2022-12-18T01:54:57.242Z,14.10
2022-12-18T01:57:28.077Z,14.52
2022-12-18T02:00:02.527Z,13.95
2022-12-18T02:02:30.488Z,14.70
2022-12-18T02:05:05.349Z,15.05
2022-12-18T02:07:43.699Z,15.27
2022-12-18T02:10:18.524Z,14.93
2022-12-18T02:12:57.495Z,15.02
2022-12-18T02:15:33.188Z,15.32
2022-12-18T02:18:06.588Z,13.65
2022-12-18T02:20:46.736Z,16.42
2022-12-18T02:23:25.436Z,14.75
2022-12-18T02:28:38.973Z,13.68
2022-12-18T02:31:13.378Z,15.38
2022-12-18T02:33:51.365Z,15.68
2022-12-18T02:36:21.017Z,14.45
2022-12-18T02:38:48.855Z,14.82
2022-12-18T02:41:18.904Z,15.70
2022-12-18T02:43:55.961Z,15.85
2022-12-18T02:46:35.127Z,16.58
2022-12-18T02:49:13.801Z,15.02
2022-12-18T02:51:51.676Z,15.38
2022-12-18T02:54:33.366Z,17.25
2022-12-18T02:57:11.528Z,15.23
2022-12-18T02:59:43.099Z,15.32
2022-12-18T03:02:20.670Z,16.00
2022-12-18T03:04:55.652Z,15.98
2022-12-18T03:07:39.023Z,15.10
2022-12-18T03:10:14.662Z,17.10
2022-12-18T03:12:48.658Z,16.15
2022-12-18T03:15:21.981Z,15.82
2022-12-18T03:17:53.615Z,14.60
2022-12-18T03:20:26.261Z,14.82
2022-12-18T03:23:00.840Z,15.25
2022-12-18T03:25:29.111Z,15.02
2022-12-18T03:28:03.211Z,16.85
2022-12-18T03:30:34.432Z,16.02
2022-12-18T03:33:09.996Z,17.10
2022-12-18T03:35:42.750Z,15.05
2022-12-18T03:38:12.169Z,14.65
2022-12-18T03:40:49.428Z,15.40
2022-12-18T03:43:24.952Z,14.38
2022-12-18T03:45:57.948Z,16.05
2022-12-18T03:48:31.236Z,14.35
2022-12-18T03:51:06.097Z,15.65
2022-12-18T03:53:39.948Z,17.23
2022-12-18T03:56:09.562Z,15.13
2022-12-18T03:58:43.476Z,15.43
2022-12-18T04:01:15.049Z,16.00
2022-12-18T04:03:44.989Z,15.93
2022-12-18T04:06:15.437Z,15.85
2022-12-18T04:08:48.344Z,16.05
2022-12-18T04:11:21.603Z,15.65
2022-12-18T04:13:59.048Z,15.25
2022-12-18T04:16:26.440Z,15.98
2022-12-18T04:18:54.882Z,15.32
2022-12-18T04:21:22.388Z,15.20
2022-12-18T04:23:49.699Z,17.25
2022-12-18T04:28:52.249Z,15.98
2022-12-18T04:31:21.957Z,15.27
2022-12-18T04:33:52.155Z,16.92
2022-12-18T04:36:22.079Z,17.30
2022-12-18T04:38:49.288Z,19.45
2022-12-18T04:41:17.716Z,21.27
2022-12-18T04:43:46.741Z,21.10
2022-12-18T04:46:13.929Z,17.95
2022-12-18T04:48:42.612Z,17.75
2022-12-18T04:51:13.880Z,17.15
2022-12-18T04:53:41.487Z,15.73
2022-12-18T04:56:10.724Z,16.92
2022-12-18T04:58:40.423Z,16.75
2022-12-18T05:01:09.723Z,16.27
2022-12-18T05:03:39.646Z,17.80
2022-12-18T05:06:10.411Z,18.13
2022-12-18T05:08:45.985Z,24.38
2022-12-18T05:11:16.670Z,23.42
2022-12-18T05:13:46.553Z,20.17
2022-12-18T05:16:14.101Z,17.17
2022-12-18T05:18:41.455Z,16.40
2022-12-18T05:21:12.774Z,15.27
2022-12-18T05:23:43.437Z,17.13
2022-12-18T05:26:20.444Z,16.55
2022-12-18T05:28:47.970Z,15.93
2022-12-18T05:31:16.889Z,16.60
2022-12-18T05:33:45.641Z,16.15
2022-12-18T05:38:44.910Z,15.05
2022-12-18T05:41:14.872Z,17.55
2022-12-18T05:43:48.073Z,16.92
2022-12-18T05:46:18.514Z,16.25
2022-12-18T05:48:49.226Z,16.45
2022-12-18T05:51:26.609Z,16.30
2022-12-18T05:53:54.325Z,16.67
2022-12-18T05:56:23.415Z,16.73
2022-12-18T05:58:53.801Z,17.38
2022-12-18T06:01:24.218Z,15.68
2022-12-18T06:03:51.684Z,16.13
2022-12-18T06:06:20.515Z,15.15
2022-12-18T06:08:50.286Z,16.60
2022-12-18T06:11:21.474Z,17.33
2022-12-18T06:13:58.261Z,17.05
2022-12-18T06:16:27.088Z,15.90
2022-12-18T06:18:54.432Z,17.70
2022-12-18T06:21:21.322Z,16.90
2022-12-18T06:23:49.868Z,16.23
2022-12-18T06:26:16.975Z,16.03
2022-12-18T06:28:44.215Z,16.85
2022-12-18T06:31:11.348Z,17.42
2022-12-18T06:33:39.713Z,17.83
2022-12-18T06:36:08.900Z,17.13
2022-12-18T06:38:38.121Z,17.25
2022-12-18T06:43:36.345Z,15.98
2022-12-18T06:46:04.766Z,17.75
2022-12-18T06:48:33.138Z,16.23
2022-12-18T06:51:02.294Z,17.33
2022-12-18T06:53:30.483Z,17.42
2022-12-18T06:56:05.181Z,17.83
2022-12-18T07:01:07.895Z,18.13
2022-12-18T07:03:38.945Z,18.02
2022-12-18T07:06:13.981Z,16.77
2022-12-18T07:08:46.196Z,19.45
2022-12-18T07:11:16.702Z,17.73
2022-12-18T07:13:46.226Z,18.52
2022-12-18T07:16:24.407Z,16.75
2022-12-18T07:18:56.494Z,18.10
2022-12-18T07:21:25.147Z,19.50
2022-12-18T07:23:52.573Z,18.88
2022-12-18T07:26:22.053Z,16.98
2022-12-18T07:29:05.260Z,16.42
2022-12-18T07:31:36.596Z,18.45
2022-12-18T07:34:04.061Z,17.58
2022-12-18T07:36:33.068Z,17.55
2022-12-18T07:39:00.023Z,19.85
2022-12-18T07:41:27.272Z,18.90
2022-12-18T07:43:56.284Z,17.40
2022-12-18T07:46:27.949Z,21.58
2022-12-18T07:48:54.821Z,18.60
2022-12-18T07:51:26.488Z,19.85
2022-12-18T07:53:56.508Z,19.55
2022-12-18T07:56:42.981Z,17.08
2022-12-18T07:59:12.930Z,20.30
2022-12-18T08:01:41.660Z,22.55
2022-12-18T08:04:10.058Z,19.52
2022-12-18T08:06:37.263Z,19.85
2022-12-18T08:09:04.221Z,20.25
2022-12-18T08:11:31.488Z,19.83
2022-12-18T08:14:01.522Z,20.02
2022-12-18T08:16:28.761Z,20.05
2022-12-18T08:18:57.610Z,19.48
2022-12-18T08:21:26.195Z,19.00
2022-12-18T08:23:57.008Z,19.95
2022-12-18T08:26:25.910Z,19.30
2022-12-18T08:28:57.580Z,19.20
2022-12-18T08:31:34.438Z,19.58
2022-12-18T08:34:03.171Z,20.27
2022-12-18T08:36:33.388Z,19.95
2022-12-18T08:39:00.698Z,20.42
2022-12-18T08:41:30.680Z,22.27
2022-12-18T08:44:16.895Z,23.25
2022-12-18T08:46:45.631Z,40.58
2022-12-18T08:49:14.457Z,38.30
2022-12-18T08:51:41.386Z,24.65
2022-12-18T08:54:10.296Z,20.23
2022-12-18T08:56:44.204Z,19.20
2022-12-18T08:59:17.294Z,18.60
2022-12-18T09:01:47.986Z,19.45
2022-12-18T09:06:49.311Z,18.73
2022-12-18T09:09:16.768Z,20.83
2022-12-18T09:11:45.331Z,20.60
2022-12-18T09:14:12.781Z,25.95
2022-12-18T09:16:39.729Z,30.88
2022-12-18T09:19:07.016Z,23.95
2022-12-18T09:21:37.156Z,21.38
2022-12-18T09:24:08.877Z,20.67
2022-12-18T09:26:36.724Z,21.00
2022-12-18T09:29:04.058Z,21.65
2022-12-18T09:31:34.240Z,19.73
2022-12-18T09:34:02.200Z,18.67
2022-12-18T09:36:29.236Z,20.65
2022-12-18T09:38:57.919Z,19.42
2022-12-18T09:41:40.188Z,21.00
2022-12-18T09:44:20.994Z,21.25
2022-12-18T09:47:00.689Z,20.27
2022-12-18T09:49:35.512Z,21.15
2022-12-18T09:52:12.421Z,21.63
2022-12-18T09:54:47.335Z,21.10
2022-12-18T09:57:22.723Z,22.00
2022-12-18T09:59:55.982Z,23.25
2022-12-18T10:02:26.050Z,22.20
2022-12-18T10:05:06.458Z,22.83
2022-12-18T10:07:55.266Z,23.77
2022-12-18T10:10:39.020Z,22.30
2022-12-18T10:13:16.564Z,22.77
2022-12-18T10:15:59.453Z,22.10
2022-12-18T10:18:42.048Z,23.63
2022-12-18T10:21:18.720Z,23.35
2022-12-18T10:23:55.377Z,24.73
2022-12-18T10:26:25.206Z,24.13
2022-12-18T10:28:53.131Z,24.60
2022-12-18T10:31:24.736Z,24.83
2022-12-18T10:33:57.105Z,25.75
2022-12-18T10:36:25.512Z,24.42
2022-12-18T10:38:52.757Z,23.05
2022-12-18T10:41:29.565Z,22.13
2022-12-18T10:44:18.378Z,21.80
2022-12-18T10:46:47.770Z,22.17
2022-12-18T10:52:04.589Z,21.17
2022-12-18T10:54:33.616Z,20.73
2022-12-18T10:57:35.206Z,22.42
2022-12-18T11:00:22.340Z,22.70
2022-12-18T11:02:52.512Z,22.38
2022-12-18T11:05:28.636Z,20.77
2022-12-18T11:07:59.541Z,29.17
2022-12-18T11:10:31.675Z,31.70
2022-12-18T11:13:13.662Z,26.75
2022-12-18T11:15:42.568Z,19.98
2022-12-18T11:18:19.990Z,19.20
2022-12-18T11:21:01.397Z,22.02
2022-12-18T11:23:29.039Z,20.92
2022-12-18T11:25:59.139Z,22.33
2022-12-18T11:28:35.910Z,22.70
2022-12-18T11:31:23.055Z,21.90
2022-12-18T11:36:49.580Z,21.50
2022-12-18T11:39:24.983Z,20.77
2022-12-18T11:42:12.775Z,16.85
2022-12-18T11:44:47.684Z,17.35
2022-12-18T11:47:26.755Z,19.33
2022-12-18T11:49:58.896Z,17.38
2022-12-18T11:52:29.675Z,18.55
2022-12-18T11:55:02.465Z,18.30
2022-12-18T11:57:42.334Z,19.10
2022-12-18T12:00:18.629Z,16.98
2022-12-18T12:03:19.953Z,15.73
2022-12-18T12:06:04.439Z,18.48
2022-12-18T12:09:04.920Z,24.35
2022-12-18T12:11:57.036Z,20.65
2022-12-18T12:14:37.896Z,15.63
2022-12-18T12:17:17.838Z,18.48
2022-12-18T12:19:53.266Z,17.65
2022-12-18T12:22:31.055Z,16.25
2022-12-18T12:25:15.620Z,19.75
2022-12-18T12:27:56.218Z,17.02
2022-12-18T12:30:32.124Z,15.43
2022-12-18T12:33:24.208Z,13.38
2022-12-18T12:36:00.186Z,14.07
2022-12-18T12:38:38.165Z,15.68
2022-12-18T12:41:30.739Z,14.60
2022-12-18T12:44:01.252Z,14.10
2022-12-18T12:46:30.616Z,13.27
2022-12-18T12:49:05.328Z,13.50
2022-12-18T12:51:35.605Z,14.15
2022-12-18T12:54:07.200Z,14.43
2022-12-18T12:56:46.727Z,15.18
2022-12-18T12:59:26.885Z,14.48
2022-12-18T13:01:59.278Z,13.20
2022-12-18T13:04:52.681Z,12.00
2022-12-18T13:07:27.967Z,12.32
2022-12-18T13:10:28.709Z,12.57
2022-12-18T13:12:57.371Z,12.48
2022-12-18T13:15:39.755Z,12.63
2022-12-18T13:18:20.979Z,12.05
2022-12-18T13:20:55.168Z,13.20
2022-12-18T13:23:43.711Z,13.25
2022-12-18T13:26:33.971Z,13.75
2022-12-18T13:29:05.049Z,16.35
2022-12-18T13:32:08.823Z,16.65
2022-12-18T13:34:37.388Z,12.07
2022-12-18T13:37:44.112Z,12.65
2022-12-18T13:40:56.478Z,11.32
2022-12-18T13:43:41.356Z,12.43
2022-12-18T13:46:24.056Z,11.48
2022-12-18T13:48:56.076Z,12.48
2022-12-18T13:51:23.942Z,19.17
2022-12-18T13:53:56.225Z,18.08
2022-12-18T13:56:28.579Z,12.68
2022-12-18T13:59:23.067Z,12.98
2022-12-18T14:01:56.290Z,22.90
2022-12-18T14:04:30.688Z,21.55
2022-12-18T14:07:03.859Z,15.55
2022-12-18T14:09:37.231Z,11.77
2022-12-18T14:12:25.785Z,11.45
2022-12-18T14:14:55.146Z,11.55
2022-12-18T14:19:51.695Z,10.45
2022-12-18T14:22:21.001Z,10.63
2022-12-18T14:25:09.591Z,10.05
2022-12-18T14:27:39.032Z,12.65
2022-12-18T14:30:24.952Z,11.82
2022-12-18T14:33:01.164Z,12.98
2022-12-18T14:35:28.556Z,12.90
2022-12-18T14:38:20.533Z,13.02
2022-12-18T14:40:58.938Z,13.60
2022-12-18T14:43:27.108Z,13.90
2022-12-18T14:46:00.808Z,14.95
2022-12-18T14:48:37.442Z,15.82
2022-12-18T14:51:07.451Z,15.73
2022-12-18T14:53:40.509Z,18.88
2022-12-18T14:56:19.748Z,19.08
2022-12-18T14:58:49.701Z,21.15
2022-12-18T15:01:28.546Z,23.30
2022-12-18T15:03:57.313Z,28.58
2022-12-18T15:06:33.630Z,24.50
2022-12-18T15:09:22.809Z,21.95
2022-12-18T15:11:57.601Z,20.38
2022-12-18T15:14:35.792Z,25.10
2022-12-18T15:17:06.971Z,22.90
2022-12-18T15:19:39.535Z,22.25
2022-12-18T15:22:21.426Z,23.27
2022-12-18T15:24:52.579Z,21.85
2022-12-18T15:27:25.508Z,20.67
2022-12-18T15:30:19.491Z,19.73
2022-12-18T15:32:49.873Z,20.50
2022-12-18T15:35:20.376Z,22.50
2022-12-18T15:37:47.933Z,22.30
2022-12-18T15:40:16.182Z,21.83
2022-12-18T15:43:05.627Z,19.85
2022-12-18T15:45:37.095Z,20.55
2022-12-18T15:48:15.687Z,21.05
2022-12-18T15:50:54.612Z,20.17
2022-12-18T15:56:18.622Z,18.30
2022-12-18T15:58:48.505Z,18.55
2022-12-18T16:01:27.239Z,19.63
2022-12-18T16:04:00.181Z,20.30
2022-12-18T16:06:30.492Z,19.70
2022-12-18T16:09:03.771Z,21.02
2022-12-18T16:11:44.002Z,20.35
2022-12-18T16:14:19.340Z,20.63
2022-12-18T16:16:47.917Z,19.73
2022-12-18T16:19:22.126Z,19.42
2022-12-18T16:21:56.907Z,18.75
2022-12-18T16:24:26.828Z,19.73
2022-12-18T16:26:54.585Z,20.02
2022-12-18T16:29:30.110Z,20.48
2022-12-18T16:31:58.119Z,19.48
2022-12-18T16:34:32.139Z,21.07
2022-12-18T16:37:05.775Z,18.90
2022-12-18T16:39:37.416Z,21.52
2022-12-18T16:42:11.361Z,20.88
2022-12-18T16:44:43.167Z,18.38
2022-12-18T16:49:43.786Z,18.42
2022-12-18T16:52:10.711Z,18.95
2022-12-18T16:54:40.542Z,17.95
2022-12-18T16:57:07.657Z,18.60
2022-12-18T16:59:34.753Z,17.50
2022-12-18T17:02:05.711Z,16.67
2022-12-18T17:04:34.199Z,16.85
2022-12-18T17:07:01.857Z,16.60
2022-12-18T17:09:29.749Z,17.02
2022-12-18T17:11:56.737Z,16.60
2022-12-18T17:14:25.703Z,15.45
2022-12-18T17:17:19.704Z,16.23
2022-12-18T17:19:42.202Z,14.53
2022-12-18T17:22:09.550Z,15.67
2022-12-18T17:24:37.440Z,17.20
2022-12-18T17:27:04.951Z,17.10
2022-12-18T17:29:36.411Z,17.55
2022-12-18T17:32:05.845Z,16.83
2022-12-18T17:34:44.217Z,17.77
2022-12-18T17:37:14.406Z,16.73
2022-12-18T17:39:46.451Z,17.10
2022-12-18T17:42:15.220Z,16.33
2022-12-18T17:44:43.437Z,16.35
2022-12-18T17:47:12.156Z,18.20
2022-12-18T17:52:10.937Z,16.63
2022-12-18T17:57:28.988Z,17.98
2022-12-18T17:59:56.303Z,19.85
2022-12-18T18:02:23.289Z,19.02
2022-12-18T18:04:52.995Z,18.88
2022-12-18T18:07:23.969Z,20.70
2022-12-18T18:09:55.392Z,20.98
2022-12-18T18:12:40.906Z,20.38
2022-12-18T18:15:10.333Z,20.35
2022-12-18T18:17:37.909Z,22.83
2022-12-18T18:20:06.235Z,22.67
2022-12-18T18:22:34.757Z,19.30
2022-12-18T18:25:03.563Z,20.42
2022-12-18T18:27:36.895Z,20.58
2022-12-18T18:30:07.790Z,23.65
2022-12-18T18:32:39.718Z,29.50
2022-12-18T18:35:12.550Z,31.80
2022-12-18T18:37:53.113Z,19.65
2022-12-18T18:42:51.593Z,21.65
2022-12-18T18:45:23.666Z,23.40
2022-12-18T18:47:50.589Z,26.13
2022-12-18T18:50:18.680Z,22.50
2022-12-18T18:52:53.165Z,28.30
2022-12-18T18:55:25.440Z,27.05
2022-12-18T18:57:52.845Z,28.85
2022-12-18T19:00:22.071Z,26.80
2022-12-18T19:02:57.697Z,30.95
2022-12-18T19:05:31.430Z,25.40
2022-12-18T19:07:59.744Z,24.58
2022-12-18T19:10:26.822Z,23.52
2022-12-18T19:13:15.711Z,23.98
2022-12-18T19:15:47.155Z,22.83
2022-12-18T19:18:17.432Z,23.30
2022-12-18T19:20:44.884Z,22.58
2022-12-18T19:23:22.439Z,22.98
2022-12-18T19:25:59.517Z,22.73
2022-12-18T19:28:40.839Z,20.27
2022-12-18T19:31:10.812Z,24.45
2022-12-18T19:33:43.673Z,25.17
2022-12-18T19:36:14.232Z,27.55
2022-12-18T19:38:45.435Z,25.13
2022-12-18T19:41:14.707Z,24.73
2022-12-18T19:43:42.422Z,23.60
2022-12-18T19:46:12.156Z,21.15
2022-12-18T19:48:39.345Z,22.08
2022-12-18T19:51:08.787Z,23.15
2022-12-18T19:53:59.943Z,23.00
2022-12-18T19:56:30.685Z,23.63
2022-12-18T20:01:27.356Z,23.98
2022-12-18T20:03:55.955Z,22.27
2022-12-18T20:06:27.045Z,22.20
2022-12-18T20:09:00.415Z,21.55
2022-12-18T20:11:31.512Z,21.35
2022-12-18T20:14:01.985Z,23.15
2022-12-18T20:16:29.728Z,21.55
2022-12-18T20:18:57.941Z,22.55
2022-12-18T20:21:28.295Z,23.40
2022-12-18T20:24:00.218Z,23.25
2022-12-18T20:26:27.734Z,23.73
2022-12-18T20:28:58.008Z,22.90
2022-12-18T20:31:27.263Z,22.65
2022-12-18T20:34:00.210Z,23.98
2022-12-18T20:36:29.524Z,23.58
2022-12-18T20:39:02.793Z,23.80
2022-12-18T20:41:37.859Z,23.10
2022-12-18T20:44:08.520Z,24.20
2022-12-18T20:46:49.931Z,23.52
2022-12-18T20:49:16.929Z,25.15
2022-12-18T20:51:44.153Z,25.77
2022-12-18T20:54:12.536Z,24.48
2022-12-18T20:56:39.780Z,24.02
2022-12-18T20:59:07.277Z,24.50
2022-12-18T21:01:34.745Z,23.25
2022-12-18T21:04:03.208Z,23.33
2022-12-18T21:06:33.164Z,24.40
2022-12-18T21:09:02.577Z,24.00
2022-12-18T21:11:54.596Z,24.17
2022-12-18T21:14:24.799Z,23.25
2022-12-18T21:16:56.081Z,25.40
2022-12-18T21:19:25.571Z,26.88
2022-12-18T21:21:53.665Z,27.13
2022-12-18T21:24:20.573Z,27.08
2022-12-18T21:26:49.643Z,26.63
2022-12-18T21:29:19.467Z,26.33
2022-12-18T21:31:53.215Z,25.27
2022-12-18T21:34:22.653Z,26.35
2022-12-18T21:36:49.919Z,24.00
2022-12-18T21:39:20.184Z,26.88
2022-12-18T21:42:09.978Z,21.55
2022-12-18T21:44:41.727Z,23.48
2022-12-18T21:47:22.290Z,23.05
2022-12-18T21:49:50.842Z,22.92
2022-12-18T21:52:18.109Z,22.95
2022-12-18T21:54:47.831Z,23.50
2022-12-18T21:57:19.693Z,22.90
2022-12-18T21:59:46.711Z,22.60
2022-12-18T22:02:21.198Z,23.23
2022-12-18T22:04:48.848Z,23.50
2022-12-18T22:07:19.172Z,22.50
2022-12-18T22:09:51.618Z,22.30
2022-12-18T22:12:35.448Z,21.38
2022-12-18T22:15:04.446Z,23.23
2022-12-18T22:17:31.883Z,23.48
2022-12-18T22:19:58.756Z,20.58
2022-12-18T22:22:25.950Z,21.40
2022-12-18T22:24:52.894Z,23.63
2022-12-18T22:27:27.527Z,23.63
2022-12-18T22:30:06.529Z,23.08
2022-12-18T22:32:35.151Z,24.30
2022-12-18T22:35:09.156Z,24.63
2022-12-18T22:37:37.108Z,21.60
2022-12-18T22:40:05.282Z,23.27
2022-12-18T22:42:34.772Z,23.13
2022-12-18T22:45:01.803Z,24.02
2022-12-18T22:47:31.176Z,22.92
2022-12-18T22:49:58.178Z,23.88
2022-12-18T22:52:25.662Z,22.92
2022-12-18T22:54:54.180Z,22.88
2022-12-18T22:57:22.685Z,23.17
2022-12-18T22:59:51.394Z,21.52
2022-12-18T23:02:22.321Z,23.40
2022-12-18T23:04:49.342Z,22.73
2022-12-18T23:07:16.694Z,23.00
2022-12-18T23:09:44.246Z,24.08
2022-12-18T23:14:43.430Z,20.30
2022-12-18T23:17:13.529Z,20.60
2022-12-18T23:19:45.452Z,21.10
2022-12-18T23:22:19.828Z,21.95
2022-12-18T23:24:47.069Z,20.10
2022-12-18T23:27:14.370Z,21.08
2022-12-18T23:29:41.297Z,20.80
2022-12-18T23:32:08.637Z,19.95
2022-12-18T23:34:37.395Z,21.30
2022-12-18T23:37:07.165Z,21.98
2022-12-18T23:39:37.231Z,21.60
2022-12-18T23:42:09.871Z,21.73
2022-12-18T23:44:43.456Z,20.23
2022-12-18T23:47:12.149Z,22.13
2022-12-18T23:49:40.542Z,21.30
2022-12-18T23:52:10.729Z,20.67
2022-12-18T23:54:39.768Z,21.13
2022-12-18T23:57:07.002Z,21.45
2022-12-18T23:59:38.840Z,20.67
